sensor_id;sensor_type;location;lat;lon;timestamp;P1;durP1;ratioP1;P2;durP2;ratioP2
27839;SDS011;15207;42.182;24.308;2023-06-19T00:01:29;6.30;;;4.80;;
27839;SDS011;15207;42.182;24.308;2023-06-19T00:03:54;6.50;;;4.53;;
27839;SDS011;15207;42.182;24.308;2023-06-19T00:06:20;6.20;;;4.20;;
27839;SDS011;15207;42.182;24.308;2023-06-19T00:08:46;5.90;;;4.10;;
27839;SDS011;15207;42.182;24.308;2023-06-19T00:11:11;6.25;;;4.65;;
27839;SDS011;15207;42.182;24.308;2023-06-19T00:13:37;6.30;;;4.40;;
27839;SDS011;15207;42.182;24.308;2023-06-19T00:16:03;7.03;;;4.20;;
27839;SDS011;15207;42.182;24.308;2023-06-19T00:18:28;6.90;;;4.30;;
27839;SDS011;15207;42.182;24.308;2023-06-19T00:20:54;5.55;;;4.20;;
27839;SDS011;15207;42.182;24.308;2023-06-19T00:23:22;7.80;;;4.20;;
27839;SDS011;15207;42.182;24.308;2023-06-19T00:25:48;7.30;;;3.90;;
27839;SDS011;15207;42.182;24.308;2023-06-19T00:28:13;7.00;;;4.50;;
27839;SDS011;15207;42.182;24.308;2023-06-19T00:30:42;7.00;;;4.70;;
27839;SDS011;15207;42.182;24.308;2023-06-19T00:33:07;5.25;;;4.00;;
27839;SDS011;15207;42.182;24.308;2023-06-19T00:35:33;5.40;;;4.20;;
27839;SDS011;15207;42.182;24.308;2023-06-19T00:40:28;6.10;;;4.40;;
27839;SDS011;15207;42.182;24.308;2023-06-19T00:42:56;6.40;;;4.10;;
27839;SDS011;15207;42.182;24.308;2023-06-19T00:45:22;6.20;;;4.43;;
27839;SDS011;15207;42.182;24.308;2023-06-19T00:47:50;5.55;;;4.10;;
27839;SDS011;15207;42.182;24.308;2023-06-19T00:50:19;7.80;;;4.20;;
27839;SDS011;15207;42.182;24.308;2023-06-19T00:52:46;6.35;;;4.10;;
27839;SDS011;15207;42.182;24.308;2023-06-19T00:55:13;6.05;;;4.45;;
27839;SDS011;15207;42.182;24.308;2023-06-19T01:00:07;7.50;;;3.70;;
27839;SDS011;15207;42.182;24.308;2023-06-19T01:02:33;6.23;;;3.77;;
27839;SDS011;15207;42.182;24.308;2023-06-19T01:04:59;5.33;;;4.10;;
27839;SDS011;15207;42.182;24.308;2023-06-19T01:07:48;6.97;;;4.63;;
27839;SDS011;15207;42.182;24.308;2023-06-19T01:10:21;5.28;;;3.80;;
27839;SDS011;15207;42.182;24.308;2023-06-19T01:13:01;5.30;;;4.20;;
27839;SDS011;15207;42.182;24.308;2023-06-19T01:15:33;6.20;;;4.20;;
27839;SDS011;15207;42.182;24.308;2023-06-19T01:18:00;5.35;;;4.20;;
27839;SDS011;15207;42.182;24.308;2023-06-19T01:20:27;6.25;;;3.90;;
27839;SDS011;15207;42.182;24.308;2023-06-19T01:22:53;5.80;;;3.90;;
27839;SDS011;15207;42.182;24.308;2023-06-19T01:25:22;5.40;;;4.30;;
27839;SDS011;15207;42.182;24.308;2023-06-19T01:27:49;6.20;;;4.70;;
27839;SDS011;15207;42.182;24.308;2023-06-19T01:30:15;5.30;;;4.10;;
27839;SDS011;15207;42.182;24.308;2023-06-19T01:32:44;9.17;;;4.33;;
27839;SDS011;15207;42.182;24.308;2023-06-19T01:35:23;5.60;;;3.80;;
27839;SDS011;15207;42.182;24.308;2023-06-19T01:37:49;7.40;;;4.10;;
27839;SDS011;15207;42.182;24.308;2023-06-19T01:40:17;5.30;;;4.10;;
27839;SDS011;15207;42.182;24.308;2023-06-19T01:42:47;4.70;;;3.80;;
27839;SDS011;15207;42.182;24.308;2023-06-19T01:45:14;5.45;;;4.10;;
27839;SDS011;15207;42.182;24.308;2023-06-19T01:47:39;6.90;;;4.60;;
27839;SDS011;15207;42.182;24.308;2023-06-19T01:50:05;6.90;;;4.20;;
27839;SDS011;15207;42.182;24.308;2023-06-19T01:52:31;5.80;;;4.30;;
27839;SDS011;15207;42.182;24.308;2023-06-19T01:54:57;7.70;;;4.32;;
27839;SDS011;15207;42.182;24.308;2023-06-19T01:57:22;5.97;;;4.30;;
27839;SDS011;15207;42.182;24.308;2023-06-19T01:59:48;5.30;;;3.70;;
27839;SDS011;15207;42.182;24.308;2023-06-19T02:02:13;5.33;;;3.80;;
27839;SDS011;15207;42.182;24.308;2023-06-19T02:04:39;7.30;;;4.00;;
27839;SDS011;15207;42.182;24.308;2023-06-19T02:07:05;5.97;;;4.28;;
27839;SDS011;15207;42.182;24.308;2023-06-19T02:09:30;7.10;;;3.90;;
27839;SDS011;15207;42.182;24.308;2023-06-19T02:11:56;9.63;;;4.57;;
27839;SDS011;15207;42.182;24.308;2023-06-19T02:14:21;10.10;;;4.10;;
27839;SDS011;15207;42.182;24.308;2023-06-19T02:16:47;6.03;;;4.50;;
27839;SDS011;15207;42.182;24.308;2023-06-19T02:19:12;7.75;;;3.55;;
27839;SDS011;15207;42.182;24.308;2023-06-19T02:21:38;6.05;;;4.15;;
27839;SDS011;15207;42.182;24.308;2023-06-19T02:24:04;6.25;;;4.15;;
27839;SDS011;15207;42.182;24.308;2023-06-19T02:26:30;10.07;;;4.32;;
27839;SDS011;15207;42.182;24.308;2023-06-19T02:28:56;4.80;;;3.77;;
27839;SDS011;15207;42.182;24.308;2023-06-19T02:31:22;8.20;;;4.60;;
27839;SDS011;15207;42.182;24.308;2023-06-19T02:33:48;6.70;;;4.70;;
27839;SDS011;15207;42.182;24.308;2023-06-19T02:36:14;7.17;;;4.47;;
27839;SDS011;15207;42.182;24.308;2023-06-19T02:38:47;8.13;;;4.07;;
27839;SDS011;15207;42.182;24.308;2023-06-19T02:41:16;7.65;;;4.65;;
27839;SDS011;15207;42.182;24.308;2023-06-19T02:43:44;7.20;;;4.60;;
27839;SDS011;15207;42.182;24.308;2023-06-19T02:46:14;6.70;;;4.30;;
27839;SDS011;15207;42.182;24.308;2023-06-19T02:48:40;5.93;;;4.20;;
27839;SDS011;15207;42.182;24.308;2023-06-19T02:51:05;6.97;;;4.63;;
27839;SDS011;15207;42.182;24.308;2023-06-19T02:53:31;8.70;;;5.20;;
27839;SDS011;15207;42.182;24.308;2023-06-19T02:55:57;10.15;;;4.60;;
27839;SDS011;15207;42.182;24.308;2023-06-19T02:58:22;7.40;;;4.40;;
27839;SDS011;15207;42.182;24.308;2023-06-19T03:00:48;10.70;;;4.70;;
27839;SDS011;15207;42.182;24.308;2023-06-19T03:03:14;6.53;;;4.50;;
27839;SDS011;15207;42.182;24.308;2023-06-19T03:05:39;8.45;;;4.30;;
27839;SDS011;15207;42.182;24.308;2023-06-19T03:08:05;6.30;;;4.70;;
27839;SDS011;15207;42.182;24.308;2023-06-19T03:10:30;5.80;;;4.30;;
27839;SDS011;15207;42.182;24.308;2023-06-19T03:12:56;7.80;;;5.10;;
27839;SDS011;15207;42.182;24.308;2023-06-19T03:15:23;6.27;;;4.00;;
27839;SDS011;15207;42.182;24.308;2023-06-19T03:17:49;6.60;;;4.65;;
27839;SDS011;15207;42.182;24.308;2023-06-19T03:20:15;7.00;;;4.55;;
27839;SDS011;15207;42.182;24.308;2023-06-19T03:22:41;8.88;;;4.85;;
27839;SDS011;15207;42.182;24.308;2023-06-19T03:27:33;6.45;;;4.40;;
27839;SDS011;15207;42.182;24.308;2023-06-19T03:30:00;6.55;;;4.70;;
27839;SDS011;15207;42.182;24.308;2023-06-19T03:37:16;6.50;;;4.30;;
27839;SDS011;15207;42.182;24.308;2023-06-19T03:39:42;5.90;;;4.30;;
27839;SDS011;15207;42.182;24.308;2023-06-19T03:42:08;8.40;;;4.55;;
27839;SDS011;15207;42.182;24.308;2023-06-19T03:46:59;7.15;;;4.45;;
27839;SDS011;15207;42.182;24.308;2023-06-19T03:49:25;5.90;;;3.90;;
27839;SDS011;15207;42.182;24.308;2023-06-19T03:51:51;5.50;;;4.15;;
27839;SDS011;15207;42.182;24.308;2023-06-19T03:56:42;6.60;;;3.90;;
27839;SDS011;15207;42.182;24.308;2023-06-19T03:59:08;5.10;;;4.10;;
27839;SDS011;15207;42.182;24.308;2023-06-19T04:01:33;7.40;;;5.00;;
27839;SDS011;15207;42.182;24.308;2023-06-19T04:03:59;7.65;;;4.80;;
27839;SDS011;15207;42.182;24.308;2023-06-19T04:06:24;5.80;;;3.95;;
27839;SDS011;15207;42.182;24.308;2023-06-19T04:08:50;6.30;;;3.90;;
27839;SDS011;15207;42.182;24.308;2023-06-19T04:11:16;6.65;;;4.35;;
27839;SDS011;15207;42.182;24.308;2023-06-19T04:13:42;8.40;;;3.90;;
27839;SDS011;15207;42.182;24.308;2023-06-19T04:16:07;5.65;;;4.20;;
27839;SDS011;15207;42.182;24.308;2023-06-19T04:18:33;8.97;;;4.20;;
27839;SDS011;15207;42.182;24.308;2023-06-19T04:21:00;5.60;;;3.80;;
27839;SDS011;15207;42.182;24.308;2023-06-19T04:23:26;8.10;;;3.95;;
27839;SDS011;15207;42.182;24.308;2023-06-19T04:25:51;6.20;;;4.00;;
27839;SDS011;15207;42.182;24.308;2023-06-19T04:28:17;8.67;;;4.00;;
27839;SDS011;15207;42.182;24.308;2023-06-19T04:30:42;5.63;;;3.80;;
27839;SDS011;15207;42.182;24.308;2023-06-19T04:33:08;7.15;;;3.50;;
27839;SDS011;15207;42.182;24.308;2023-06-19T04:35:34;5.10;;;3.53;;
27839;SDS011;15207;42.182;24.308;2023-06-19T04:38:08;7.25;;;3.60;;
27839;SDS011;15207;42.182;24.308;2023-06-19T04:40:34;5.70;;;4.10;;
27839;SDS011;15207;42.182;24.308;2023-06-19T04:43:00;6.70;;;4.00;;
27839;SDS011;15207;42.182;24.308;2023-06-19T04:45:27;5.10;;;3.70;;
27839;SDS011;15207;42.182;24.308;2023-06-19T04:47:53;5.35;;;3.35;;
27839;SDS011;15207;42.182;24.308;2023-06-19T04:50:19;5.00;;;3.15;;
27839;SDS011;15207;42.182;24.308;2023-06-19T04:55:10;35.65;;;5.55;;
27839;SDS011;15207;42.182;24.308;2023-06-19T04:57:36;12.50;;;4.20;;
27839;SDS011;15207;42.182;24.308;2023-06-19T05:00:03;3.80;;;3.33;;
27839;SDS011;15207;42.182;24.308;2023-06-19T05:02:33;6.50;;;4.05;;
27839;SDS011;15207;42.182;24.308;2023-06-19T05:04:59;8.00;;;3.80;;
27839;SDS011;15207;42.182;24.308;2023-06-19T05:07:29;5.00;;;3.40;;
27839;SDS011;15207;42.182;24.308;2023-06-19T05:09:56;5.60;;;3.60;;
27839;SDS011;15207;42.182;24.308;2023-06-19T05:12:22;5.50;;;3.40;;
27839;SDS011;15207;42.182;24.308;2023-06-19T05:14:47;6.65;;;3.55;;
27839;SDS011;15207;42.182;24.308;2023-06-19T05:17:13;5.70;;;3.40;;
27839;SDS011;15207;42.182;24.308;2023-06-19T05:19:39;7.70;;;3.80;;
27839;SDS011;15207;42.182;24.308;2023-06-19T05:22:05;5.80;;;3.50;;
27839;SDS011;15207;42.182;24.308;2023-06-19T05:24:31;5.50;;;3.50;;
27839;SDS011;15207;42.182;24.308;2023-06-19T05:26:57;5.70;;;3.55;;
27839;SDS011;15207;42.182;24.308;2023-06-19T05:29:23;6.70;;;3.40;;
27839;SDS011;15207;42.182;24.308;2023-06-19T05:31:48;8.30;;;2.90;;
27839;SDS011;15207;42.182;24.308;2023-06-19T05:34:14;4.60;;;3.55;;
27839;SDS011;15207;42.182;24.308;2023-06-19T05:39:05;4.25;;;3.00;;
27839;SDS011;15207;42.182;24.308;2023-06-19T05:41:31;5.68;;;2.90;;
27839;SDS011;15207;42.182;24.308;2023-06-19T05:43:57;4.20;;;3.10;;
27839;SDS011;15207;42.182;24.308;2023-06-19T05:46:23;5.05;;;3.20;;
27839;SDS011;15207;42.182;24.308;2023-06-19T05:48:49;4.40;;;3.40;;
27839;SDS011;15207;42.182;24.308;2023-06-19T05:51:15;4.40;;;3.30;;
27839;SDS011;15207;42.182;24.308;2023-06-19T05:53:41;3.90;;;3.10;;
27839;SDS011;15207;42.182;24.308;2023-06-19T05:56:07;4.80;;;3.05;;
27839;SDS011;15207;42.182;24.308;2023-06-19T06:00:59;4.30;;;3.15;;
27839;SDS011;15207;42.182;24.308;2023-06-19T06:03:25;8.10;;;3.00;;
27839;SDS011;15207;42.182;24.308;2023-06-19T06:05:51;4.28;;;3.33;;
27839;SDS011;15207;42.182;24.308;2023-06-19T06:08:17;6.53;;;3.00;;
27839;SDS011;15207;42.182;24.308;2023-06-19T06:10:43;7.15;;;3.55;;
27839;SDS011;15207;42.182;24.308;2023-06-19T06:13:08;6.57;;;3.08;;
27839;SDS011;15207;42.182;24.308;2023-06-19T06:15:34;6.67;;;3.43;;
27839;SDS011;15207;42.182;24.308;2023-06-19T06:18:00;3.15;;;2.85;;
27839;SDS011;15207;42.182;24.308;2023-06-19T06:20:26;7.93;;;3.35;;
27839;SDS011;15207;42.182;24.308;2023-06-19T06:22:54;4.40;;;2.90;;
27839;SDS011;15207;42.182;24.308;2023-06-19T06:25:20;5.20;;;3.20;;
27839;SDS011;15207;42.182;24.308;2023-06-19T06:30:12;5.65;;;3.45;;
27839;SDS011;15207;42.182;24.308;2023-06-19T06:32:38;5.25;;;2.90;;
27839;SDS011;15207;42.182;24.308;2023-06-19T06:35:04;4.80;;;3.10;;
27839;SDS011;15207;42.182;24.308;2023-06-19T06:37:30;4.45;;;2.90;;
27839;SDS011;15207;42.182;24.308;2023-06-19T06:39:55;4.03;;;3.03;;
27839;SDS011;15207;42.182;24.308;2023-06-19T06:42:22;6.20;;;3.10;;
27839;SDS011;15207;42.182;24.308;2023-06-19T06:44:48;4.65;;;3.25;;
27839;SDS011;15207;42.182;24.308;2023-06-19T06:47:13;3.60;;;2.90;;
27839;SDS011;15207;42.182;24.308;2023-06-19T06:49:39;5.95;;;2.90;;
27839;SDS011;15207;42.182;24.308;2023-06-19T06:52:05;2.90;;;2.50;;
27839;SDS011;15207;42.182;24.308;2023-06-19T06:54:31;5.00;;;2.80;;
27839;SDS011;15207;42.182;24.308;2023-06-19T06:56:58;4.75;;;2.65;;
27839;SDS011;15207;42.182;24.308;2023-06-19T07:01:52;5.45;;;3.00;;
27839;SDS011;15207;42.182;24.308;2023-06-19T07:04:21;4.00;;;3.00;;
27839;SDS011;15207;42.182;24.308;2023-06-19T07:06:47;5.90;;;2.70;;
27839;SDS011;15207;42.182;24.308;2023-06-19T07:09:14;4.30;;;3.00;;
27839;SDS011;15207;42.182;24.308;2023-06-19T07:14:08;4.00;;;2.65;;
27839;SDS011;15207;42.182;24.308;2023-06-19T07:16:34;3.80;;;2.70;;
27839;SDS011;15207;42.182;24.308;2023-06-19T07:18:59;4.40;;;2.80;;
27839;SDS011;15207;42.182;24.308;2023-06-19T07:21:25;5.00;;;2.70;;
27839;SDS011;15207;42.182;24.308;2023-06-19T07:23:53;3.45;;;2.50;;
27839;SDS011;15207;42.182;24.308;2023-06-19T07:26:20;3.70;;;2.70;;
27839;SDS011;15207;42.182;24.308;2023-06-19T07:28:46;3.50;;;2.50;;
27839;SDS011;15207;42.182;24.308;2023-06-19T07:31:12;4.40;;;2.90;;
27839;SDS011;15207;42.182;24.308;2023-06-19T07:33:38;5.60;;;3.30;;
27839;SDS011;15207;42.182;24.308;2023-06-19T07:36:05;8.50;;;3.70;;
27839;SDS011;15207;42.182;24.308;2023-06-19T07:38:31;4.40;;;2.75;;
27839;SDS011;15207;42.182;24.308;2023-06-19T07:40:57;4.15;;;3.10;;
27839;SDS011;15207;42.182;24.308;2023-06-19T07:43:23;5.15;;;3.20;;
27839;SDS011;15207;42.182;24.308;2023-06-19T07:45:49;5.50;;;2.90;;
27839;SDS011;15207;42.182;24.308;2023-06-19T07:48:14;4.30;;;2.70;;
27839;SDS011;15207;42.182;24.308;2023-06-19T07:50:40;4.45;;;3.05;;
27839;SDS011;15207;42.182;24.308;2023-06-19T07:53:07;5.55;;;3.05;;
27839;SDS011;15207;42.182;24.308;2023-06-19T07:55:32;4.60;;;2.67;;
27839;SDS011;15207;42.182;24.308;2023-06-19T07:58:00;5.70;;;2.80;;
27839;SDS011;15207;42.182;24.308;2023-06-19T08:00:26;4.40;;;2.90;;
27839;SDS011;15207;42.182;24.308;2023-06-19T08:02:53;4.95;;;3.30;;
27839;SDS011;15207;42.182;24.308;2023-06-19T08:05:18;6.13;;;3.05;;
27839;SDS011;15207;42.182;24.308;2023-06-19T08:07:44;3.45;;;2.65;;
27839;SDS011;15207;42.182;24.308;2023-06-19T08:10:10;5.15;;;2.85;;
27839;SDS011;15207;42.182;24.308;2023-06-19T08:12:36;5.20;;;3.10;;
27839;SDS011;15207;42.182;24.308;2023-06-19T08:15:02;4.40;;;3.25;;
27839;SDS011;15207;42.182;24.308;2023-06-19T08:17:28;4.05;;;3.00;;
27839;SDS011;15207;42.182;24.308;2023-06-19T08:19:54;4.03;;;3.10;;
27839;SDS011;15207;42.182;24.308;2023-06-19T08:22:19;6.90;;;2.90;;
27839;SDS011;15207;42.182;24.308;2023-06-19T08:24:45;4.00;;;3.05;;
27839;SDS011;15207;42.182;24.308;2023-06-19T08:27:11;6.15;;;3.00;;
27839;SDS011;15207;42.182;24.308;2023-06-19T08:29:37;6.20;;;3.00;;
27839;SDS011;15207;42.182;24.308;2023-06-19T08:32:03;7.30;;;3.00;;
27839;SDS011;15207;42.182;24.308;2023-06-19T08:34:29;4.10;;;3.30;;
27839;SDS011;15207;42.182;24.308;2023-06-19T08:36:55;8.50;;;3.15;;
27839;SDS011;15207;42.182;24.308;2023-06-19T08:39:22;4.10;;;3.05;;
27839;SDS011;15207;42.182;24.308;2023-06-19T08:41:48;4.85;;;2.85;;
27839;SDS011;15207;42.182;24.308;2023-06-19T08:44:14;4.20;;;3.40;;
27839;SDS011;15207;42.182;24.308;2023-06-19T08:46:39;7.70;;;3.65;;
27839;SDS011;15207;42.182;24.308;2023-06-19T08:49:07;4.40;;;2.80;;
27839;SDS011;15207;42.182;24.308;2023-06-19T08:51:35;4.40;;;3.20;;
27839;SDS011;15207;42.182;24.308;2023-06-19T08:54:03;4.50;;;3.10;;
27839;SDS011;15207;42.182;24.308;2023-06-19T08:56:30;3.50;;;2.80;;
27839;SDS011;15207;42.182;24.308;2023-06-19T09:01:56;6.30;;;2.95;;
27839;SDS011;15207;42.182;24.308;2023-06-19T09:04:26;4.25;;;3.00;;
27839;SDS011;15207;42.182;24.308;2023-06-19T09:06:54;3.80;;;3.15;;
27839;SDS011;15207;42.182;24.308;2023-06-19T09:09:22;4.77;;;3.23;;
27839;SDS011;15207;42.182;24.308;2023-06-19T09:12:02;8.00;;;3.25;;
27839;SDS011;15207;42.182;24.308;2023-06-19T09:14:33;4.87;;;2.93;;
27839;SDS011;15207;42.182;24.308;2023-06-19T09:17:03;4.20;;;3.40;;
27839;SDS011;15207;42.182;24.308;2023-06-19T09:19:32;4.40;;;3.50;;
27839;SDS011;15207;42.182;24.308;2023-06-19T09:22:00;6.00;;;3.47;;
27839;SDS011;15207;42.182;24.308;2023-06-19T09:24:37;4.25;;;3.20;;
27839;SDS011;15207;42.182;24.308;2023-06-19T09:27:11;4.40;;;3.10;;
27839;SDS011;15207;42.182;24.308;2023-06-19T09:29:39;4.20;;;2.90;;
27839;SDS011;15207;42.182;24.308;2023-06-19T09:32:19;5.20;;;2.90;;
27839;SDS011;15207;42.182;24.308;2023-06-19T09:34:46;5.80;;;3.40;;
27839;SDS011;15207;42.182;24.308;2023-06-19T09:37:13;4.35;;;3.30;;
27839;SDS011;15207;42.182;24.308;2023-06-19T09:39:40;4.10;;;2.90;;
27839;SDS011;15207;42.182;24.308;2023-06-19T09:42:07;4.20;;;3.20;;
27839;SDS011;15207;42.182;24.308;2023-06-19T09:44:41;7.00;;;3.30;;
27839;SDS011;15207;42.182;24.308;2023-06-19T09:47:14;6.15;;;3.25;;
27839;SDS011;15207;42.182;24.308;2023-06-19T09:49:54;2.97;;;2.60;;
27839;SDS011;15207;42.182;24.308;2023-06-19T09:52:22;5.00;;;3.20;;
27839;SDS011;15207;42.182;24.308;2023-06-19T09:54:54;5.30;;;2.95;;
27839;SDS011;15207;42.182;24.308;2023-06-19T09:57:24;4.30;;;3.00;;
27839;SDS011;15207;42.182;24.308;2023-06-19T09:59:54;4.45;;;3.10;;
27839;SDS011;15207;42.182;24.308;2023-06-19T10:02:27;6.67;;;2.73;;
27839;SDS011;15207;42.182;24.308;2023-06-19T10:04:56;5.30;;;3.00;;
27839;SDS011;15207;42.182;24.308;2023-06-19T10:07:24;5.50;;;2.50;;
27839;SDS011;15207;42.182;24.308;2023-06-19T10:15:08;5.10;;;3.00;;
27839;SDS011;15207;42.182;24.308;2023-06-19T10:17:46;4.95;;;3.40;;
27839;SDS011;15207;42.182;24.308;2023-06-19T10:20:24;4.10;;;2.70;;
27839;SDS011;15207;42.182;24.308;2023-06-19T10:22:56;3.83;;;2.60;;
27839;SDS011;15207;42.182;24.308;2023-06-19T10:25:24;5.10;;;3.00;;
27839;SDS011;15207;42.182;24.308;2023-06-19T10:27:52;3.67;;;2.93;;
27839;SDS011;15207;42.182;24.308;2023-06-19T10:30:18;3.20;;;2.50;;
27839;SDS011;15207;42.182;24.308;2023-06-19T10:32:47;4.70;;;2.80;;
27839;SDS011;15207;42.182;24.308;2023-06-19T10:35:14;6.15;;;2.67;;
27839;SDS011;15207;42.182;24.308;2023-06-19T10:37:42;3.55;;;2.85;;
27839;SDS011;15207;42.182;24.308;2023-06-19T10:40:09;3.57;;;2.60;;
27839;SDS011;15207;42.182;24.308;2023-06-19T10:42:42;3.00;;;2.37;;
27839;SDS011;15207;42.182;24.308;2023-06-19T10:45:10;4.75;;;2.70;;
27839;SDS011;15207;42.182;24.308;2023-06-19T10:47:41;4.13;;;2.60;;
27839;SDS011;15207;42.182;24.308;2023-06-19T10:50:11;4.70;;;3.40;;
27839;SDS011;15207;42.182;24.308;2023-06-19T10:52:42;3.45;;;2.50;;
27839;SDS011;15207;42.182;24.308;2023-06-19T10:55:09;4.10;;;2.57;;
27839;SDS011;15207;42.182;24.308;2023-06-19T11:00:05;3.43;;;2.20;;
27839;SDS011;15207;42.182;24.308;2023-06-19T11:02:37;3.33;;;2.57;;
27839;SDS011;15207;42.182;24.308;2023-06-19T11:05:04;3.90;;;2.50;;
27839;SDS011;15207;42.182;24.308;2023-06-19T11:07:31;4.10;;;2.60;;
27839;SDS011;15207;42.182;24.308;2023-06-19T11:09:57;4.55;;;2.40;;
27839;SDS011;15207;42.182;24.308;2023-06-19T11:12:23;3.00;;;2.70;;
27839;SDS011;15207;42.182;24.308;2023-06-19T11:14:49;3.50;;;2.70;;
27839;SDS011;15207;42.182;24.308;2023-06-19T11:17:15;3.45;;;2.60;;
27839;SDS011;15207;42.182;24.308;2023-06-19T11:19:46;5.00;;;3.00;;
27839;SDS011;15207;42.182;24.308;2023-06-19T11:22:13;2.93;;;2.53;;
27839;SDS011;15207;42.182;24.308;2023-06-19T11:24:45;3.15;;;2.20;;
27839;SDS011;15207;42.182;24.308;2023-06-19T11:27:20;3.50;;;3.00;;
27839;SDS011;15207;42.182;24.308;2023-06-19T11:29:56;2.55;;;2.20;;
27839;SDS011;15207;42.182;24.308;2023-06-19T11:32:24;5.40;;;2.80;;
27839;SDS011;15207;42.182;24.308;2023-06-19T11:34:56;4.70;;;2.50;;
27839;SDS011;15207;42.182;24.308;2023-06-19T11:37:22;4.95;;;2.80;;
27839;SDS011;15207;42.182;24.308;2023-06-19T11:39:49;5.85;;;3.25;;
27839;SDS011;15207;42.182;24.308;2023-06-19T11:44:55;3.20;;;2.10;;
27839;SDS011;15207;42.182;24.308;2023-06-19T11:47:22;5.40;;;2.50;;
27839;SDS011;15207;42.182;24.308;2023-06-19T11:49:48;4.50;;;2.70;;
27839;SDS011;15207;42.182;24.308;2023-06-19T11:52:15;3.40;;;2.45;;
27839;SDS011;15207;42.182;24.308;2023-06-19T11:54:41;3.40;;;2.10;;
27839;SDS011;15207;42.182;24.308;2023-06-19T11:57:08;2.40;;;1.85;;
27839;SDS011;15207;42.182;24.308;2023-06-19T11:59:38;5.40;;;2.50;;
27839;SDS011;15207;42.182;24.308;2023-06-19T12:02:05;4.05;;;2.15;;
27839;SDS011;15207;42.182;24.308;2023-06-19T12:04:31;2.85;;;2.10;;
27839;SDS011;15207;42.182;24.308;2023-06-19T12:06:56;3.17;;;2.17;;
27839;SDS011;15207;42.182;24.308;2023-06-19T12:09:22;3.10;;;1.80;;
27839;SDS011;15207;42.182;24.308;2023-06-19T12:11:48;4.50;;;2.40;;
27839;SDS011;15207;42.182;24.308;2023-06-19T12:14:15;3.80;;;2.20;;
27839;SDS011;15207;42.182;24.308;2023-06-19T12:16:41;2.70;;;1.90;;
27839;SDS011;15207;42.182;24.308;2023-06-19T12:19:08;5.15;;;1.90;;
27839;SDS011;15207;42.182;24.308;2023-06-19T12:21:33;3.43;;;2.13;;
27839;SDS011;15207;42.182;24.308;2023-06-19T12:23:59;3.75;;;2.25;;
27839;SDS011;15207;42.182;24.308;2023-06-19T12:26:24;3.60;;;2.20;;
27839;SDS011;15207;42.182;24.308;2023-06-19T12:28:50;6.10;;;2.80;;
27839;SDS011;15207;42.182;24.308;2023-06-19T12:31:17;3.60;;;2.60;;
27839;SDS011;15207;42.182;24.308;2023-06-19T12:33:43;2.93;;;2.37;;
27839;SDS011;15207;42.182;24.308;2023-06-19T12:36:16;3.40;;;2.30;;
27839;SDS011;15207;42.182;24.308;2023-06-19T12:38:41;3.17;;;1.87;;
27839;SDS011;15207;42.182;24.308;2023-06-19T12:41:07;2.10;;;1.90;;
27839;SDS011;15207;42.182;24.308;2023-06-19T12:43:33;3.20;;;2.10;;
27839;SDS011;15207;42.182;24.308;2023-06-19T12:45:58;3.67;;;1.90;;
27839;SDS011;15207;42.182;24.308;2023-06-19T12:48:25;2.30;;;1.90;;
27839;SDS011;15207;42.182;24.308;2023-06-19T12:50:51;3.70;;;1.80;;
27839;SDS011;15207;42.182;24.308;2023-06-19T12:53:16;2.45;;;1.75;;
27839;SDS011;15207;42.182;24.308;2023-06-19T12:55:43;2.40;;;1.70;;
27839;SDS011;15207;42.182;24.308;2023-06-19T12:58:09;3.45;;;1.90;;
27839;SDS011;15207;42.182;24.308;2023-06-19T13:00:36;4.00;;;1.60;;
27839;SDS011;15207;42.182;24.308;2023-06-19T13:03:03;5.30;;;2.00;;
27839;SDS011;15207;42.182;24.308;2023-06-19T13:05:28;3.17;;;1.80;;
27839;SDS011;15207;42.182;24.308;2023-06-19T13:07:55;3.67;;;1.60;;
27839;SDS011;15207;42.182;24.308;2023-06-19T13:10:21;2.30;;;1.90;;
27839;SDS011;15207;42.182;24.308;2023-06-19T13:12:46;3.50;;;1.60;;
27839;SDS011;15207;42.182;24.308;2023-06-19T13:15:13;3.25;;;1.90;;
27839;SDS011;15207;42.182;24.308;2023-06-19T13:17:42;1.80;;;1.60;;
27839;SDS011;15207;42.182;24.308;2023-06-19T13:20:08;1.90;;;1.45;;
27839;SDS011;15207;42.182;24.308;2023-06-19T13:22:34;2.60;;;1.70;;
27839;SDS011;15207;42.182;24.308;2023-06-19T13:25:00;3.30;;;2.00;;
27839;SDS011;15207;42.182;24.308;2023-06-19T13:27:27;2.15;;;1.60;;
27839;SDS011;15207;42.182;24.308;2023-06-19T13:29:53;7.50;;;2.00;;
27839;SDS011;15207;42.182;24.308;2023-06-19T13:32:20;2.90;;;2.20;;
27839;SDS011;15207;42.182;24.308;2023-06-19T13:34:45;3.60;;;2.10;;
27839;SDS011;15207;42.182;24.308;2023-06-19T13:37:11;5.40;;;3.00;;
27839;SDS011;15207;42.182;24.308;2023-06-19T13:39:37;3.47;;;2.50;;
27839;SDS011;15207;42.182;24.308;2023-06-19T13:44:30;3.73;;;2.13;;
27839;SDS011;15207;42.182;24.308;2023-06-19T13:46:56;2.85;;;2.50;;
27839;SDS011;15207;42.182;24.308;2023-06-19T13:49:22;4.05;;;2.25;;
27839;SDS011;15207;42.182;24.308;2023-06-19T13:51:48;4.05;;;2.20;;
27839;SDS011;15207;42.182;24.308;2023-06-19T13:54:13;3.10;;;2.40;;
27839;SDS011;15207;42.182;24.308;2023-06-19T13:56:39;2.80;;;2.10;;
27839;SDS011;15207;42.182;24.308;2023-06-19T13:59:05;2.95;;;2.20;;
27839;SDS011;15207;42.182;24.308;2023-06-19T14:01:31;5.90;;;2.30;;
27839;SDS011;15207;42.182;24.308;2023-06-19T14:03:57;3.90;;;2.35;;
27839;SDS011;15207;42.182;24.308;2023-06-19T14:08:51;2.80;;;2.20;;
27839;SDS011;15207;42.182;24.308;2023-06-19T14:11:18;2.90;;;2.20;;
27839;SDS011;15207;42.182;24.308;2023-06-19T14:13:44;4.05;;;2.30;;
27839;SDS011;15207;42.182;24.308;2023-06-19T14:16:09;7.80;;;2.85;;
27839;SDS011;15207;42.182;24.308;2023-06-19T14:18:35;3.30;;;2.40;;
27839;SDS011;15207;42.182;24.308;2023-06-19T14:21:03;2.90;;;2.27;;
27839;SDS011;15207;42.182;24.308;2023-06-19T14:23:29;5.20;;;3.00;;
27839;SDS011;15207;42.182;24.308;2023-06-19T14:25:56;2.63;;;2.37;;
27839;SDS011;15207;42.182;24.308;2023-06-19T14:28:21;2.95;;;2.35;;
27839;SDS011;15207;42.182;24.308;2023-06-19T14:30:47;3.40;;;2.45;;
27839;SDS011;15207;42.182;24.308;2023-06-19T14:33:13;4.30;;;2.30;;
27839;SDS011;15207;42.182;24.308;2023-06-19T14:35:41;2.80;;;2.10;;
27839;SDS011;15207;42.182;24.308;2023-06-19T14:40:37;3.00;;;2.40;;
27839;SDS011;15207;42.182;24.308;2023-06-19T14:43:03;5.43;;;2.43;;
27839;SDS011;15207;42.182;24.308;2023-06-19T14:45:28;2.80;;;2.50;;
27839;SDS011;15207;42.182;24.308;2023-06-19T14:47:54;3.60;;;2.25;;
27839;SDS011;15207;42.182;24.308;2023-06-19T14:50:21;4.65;;;2.40;;
27839;SDS011;15207;42.182;24.308;2023-06-19T14:52:47;3.30;;;2.27;;
27839;SDS011;15207;42.182;24.308;2023-06-19T14:55:12;5.10;;;2.40;;
27839;SDS011;15207;42.182;24.308;2023-06-19T14:57:38;3.00;;;2.50;;
27839;SDS011;15207;42.182;24.308;2023-06-19T15:00:04;3.20;;;2.30;;
27839;SDS011;15207;42.182;24.308;2023-06-19T15:02:30;2.30;;;2.00;;
27839;SDS011;15207;42.182;24.308;2023-06-19T15:04:56;4.85;;;2.65;;
27839;SDS011;15207;42.182;24.308;2023-06-19T15:07:22;3.60;;;2.75;;
27839;SDS011;15207;42.182;24.308;2023-06-19T15:09:48;4.20;;;2.20;;
27839;SDS011;15207;42.182;24.308;2023-06-19T15:12:13;4.35;;;2.42;;
27839;SDS011;15207;42.182;24.308;2023-06-19T15:14:39;3.53;;;2.77;;
27839;SDS011;15207;42.182;24.308;2023-06-19T15:17:06;3.40;;;2.30;;
27839;SDS011;15207;42.182;24.308;2023-06-19T15:19:32;2.90;;;2.20;;
27839;SDS011;15207;42.182;24.308;2023-06-19T15:21:57;3.40;;;2.65;;
27839;SDS011;15207;42.182;24.308;2023-06-19T15:24:23;4.47;;;2.33;;